Time;durP1;ratioP1;P1;durP2;ratioP2;P2;SDS_P1;SDS_P2;PMS_P1;PMS_P2;Temp;Humidity;BMP_temperature;BMP_pressure;BME280_temperature;BME280_humidity;BME280_pressure;Samples;Min_cycle;Max_cycle;Signal;HPM_P1;HPM_P2
2023/10/18 00:00:34;;;;;;;12.88;8.50;;;1.40;99.90;;;;;;5035912;28;20037;-82
2023/10/18 00:03:05;;;;;;;14.32;8.52;;;1.40;99.90;;;;;;5050566;28;20069;-80
2023/10/18 00:05:31;;;;;;;11.05;7.35;;;1.30;99.90;;;;;;5039684;28;20406;-82
2023/10/18 00:07:57;;;;;;;11.15;7.30;;;1.30;99.90;;;;;;5028515;28;20033;-80
2023/10/18 00:10:24;;;;;;;12.65;7.53;;;1.20;99.90;;;;;;5038494;28;20037;-82
2023/10/18 00:12:52;;;;;;;11.20;7.35;;;1.30;99.90;;;;;;5039450;28;20060;-78
2023/10/18 00:15:19;;;;;;;13.60;7.40;;;1.20;99.90;;;;;;5036044;28;20025;-80
2023/10/18 00:17:45;;;;;;;12.38;7.85;;;1.20;99.90;;;;;;5038516;28;20061;-81
2023/10/18 00:20:15;;;;;;;13.10;7.53;;;1.20;99.90;;;;;;5038382;28;20056;-83
2023/10/18 00:22:43;;;;;;;14.52;8.25;;;1.20;99.90;;;;;;5036647;28;20045;-81
2023/10/18 00:25:12;;;;;;;14.07;8.40;;;1.20;99.90;;;;;;5053896;28;20033;-82
2023/10/18 00:27:39;;;;;;;15.02;8.45;;;1.10;99.90;;;;;;5037400;28;20163;-83
2023/10/18 00:30:12;;;;;;;16.33;8.15;;;1.10;99.90;;;;;;5037727;28;20404;-81
2023/10/18 00:32:42;;;;;;;14.38;8.05;;;1.10;99.90;;;;;;5020399;28;20034;-82
2023/10/18 00:35:18;;;;;;;10.82;7.68;;;1.00;99.90;;;;;;5031645;28;20041;-81
2023/10/18 00:37:50;;;;;;;17.08;8.27;;;1.00;99.90;;;;;;5036816;28;20389;-83
2023/10/18 00:43:28;;;;;;;13.07;7.38;;;1.00;99.90;;;;;;5053316;28;20040;-83
2023/10/18 00:45:55;;;;;;;15.65;9.05;;;1.00;99.90;;;;;;5040931;28;20033;-78
2023/10/18 00:48:26;;;;;;;13.20;8.15;;;1.00;99.90;;;;;;5036312;28;20033;-84
2023/10/18 00:50:54;;;;;;;13.38;9.13;;;1.00;99.90;;;;;;5037337;28;20508;-78
2023/10/18 00:53:30;;;;;;;13.02;8.88;;;1.00;99.90;;;;;;5031599;28;20033;-80
2023/10/18 00:55:57;;;;;;;12.40;8.00;;;1.00;99.90;;;;;;5038414;28;20036;-79
2023/10/18 00:58:30;;;;;;;12.77;8.05;;;1.00;99.90;;;;;;5033794;28;20037;-81
2023/10/18 01:00:57;;;;;;;13.65;8.30;;;1.00;99.90;;;;;;5033866;28;20024;-82
2023/10/18 01:03:31;;;;;;;16.67;8.73;;;1.00;99.90;;;;;;5038080;28;20033;-84
2023/10/18 01:06:03;;;;;;;16.75;8.70;;;1.00;99.90;;;;;;5032541;28;20025;-82
2023/10/18 01:08:29;;;;;;;12.52;7.82;;;0.90;99.90;;;;;;5030847;28;20393;-82
2023/10/18 01:11:04;;;;;;;16.52;9.27;;;0.90;99.90;;;;;;5032704;28;20024;-81
2023/10/18 01:13:36;;;;;;;13.50;9.27;;;0.90;99.90;;;;;;5032880;28;20022;-82
2023/10/18 01:16:06;;;;;;;15.02;9.23;;;0.90;99.90;;;;;;5031370;28;20118;-81
2023/10/18 01:18:32;;;;;;;15.02;8.63;;;0.90;99.90;;;;;;5029574;28;20044;-82
2023/10/18 01:20:57;;;;;;;18.45;9.63;;;0.90;99.90;;;;;;5019145;28;20037;-82
2023/10/18 01:23:24;;;;;;;12.38;8.85;;;0.90;99.90;;;;;;5034707;28;20065;-81
2023/10/18 01:25:49;;;;;;;14.00;8.95;;;0.90;99.90;;;;;;5018354;28;20056;-82
2023/10/18 01:28:15;;;;;;;17.20;9.55;;;0.90;99.90;;;;;;5035535;28;20034;-81
2023/10/18 01:30:42;;;;;;;14.68;9.45;;;0.90;99.90;;;;;;5034661;28;20040;-82
2023/10/18 01:33:10;;;;;;;13.98;7.93;;;0.90;99.90;;;;;;5037938;28;20029;-82
2023/10/18 01:35:46;;;;;;;12.13;8.32;;;0.90;99.90;;;;;;5035921;28;20036;-82
2023/10/18 01:38:15;;;;;;;10.18;7.25;;;0.90;99.90;;;;;;5036326;28;20385;-81
2023/10/18 01:40:52;;;;;;;11.45;7.53;;;0.90;99.90;;;;;;5035553;28;20049;-82
2023/10/18 01:43:18;;;;;;;11.77;7.57;;;1.00;99.90;;;;;;5053315;28;20096;-82
2023/10/18 01:45:48;;;;;;;11.63;7.65;;;0.90;99.90;;;;;;5049567;28;20072;-82
2023/10/18 01:48:17;;;;;;;12.05;7.60;;;0.90;99.90;;;;;;5034213;28;20040;-82
2023/10/18 01:50:45;;;;;;;10.82;7.55;;;0.90;99.90;;;;;;5032134;28;20041;-82
2023/10/18 01:53:16;;;;;;;13.43;8.05;;;0.80;99.90;;;;;;5034910;28;20397;-82
2023/10/18 01:55:51;;;;;;;13.88;8.30;;;0.80;99.90;;;;;;5032093;28;20034;-82
2023/10/18 01:58:23;;;;;;;14.18;8.20;;;0.80;99.90;;;;;;5016972;28;20555;-81
2023/10/18 02:00:51;;;;;;;12.00;8.40;;;0.70;99.90;;;;;;5050453;28;20032;-79
2023/10/18 02:03:19;;;;;;;14.70;9.02;;;0.70;99.90;;;;;;5037265;28;20026;-82
2023/10/18 02:05:47;;;;;;;14.32;9.18;;;0.70;99.90;;;;;;5018154;28;20048;-81
2023/10/18 02:08:13;;;;;;;14.27;9.30;;;0.70;99.90;;;;;;5037495;28;20041;-82
2023/10/18 02:10:42;;;;;;;15.02;8.63;;;0.70;99.90;;;;;;5035103;28;20029;-83
2023/10/18 02:13:13;;;;;;;14.93;9.18;;;0.70;99.90;;;;;;5039551;28;20030;-84
2023/10/18 02:15:41;;;;;;;13.38;8.75;;;0.80;99.90;;;;;;5036956;28;20030;-82
2023/10/18 02:18:10;;;;;;;14.05;8.38;;;0.80;99.90;;;;;;5052623;28;20542;-81
2023/10/18 02:20:50;;;;;;;13.25;8.68;;;0.80;99.90;;;;;;5037288;28;20106;-80
2023/10/18 02:23:16;;;;;;;12.93;8.70;;;0.80;99.90;;;;;;5048483;28;20124;-81
2023/10/18 02:25:43;;;;;;;13.57;8.75;;;0.80;99.90;;;;;;5030677;28;20040;-80
2023/10/18 02:28:22;;;;;;;11.85;8.45;;;0.80;99.90;;;;;;5030309;28;20099;-82
2023/10/18 02:30:57;;;;;;;10.00;7.13;;;0.80;99.90;;;;;;5028253;28;20092;-81
2023/10/18 02:36:11;;;;;;;14.57;8.48;;;0.80;99.90;;;;;;5034939;28;20026;-81
2023/10/18 02:38:38;;;;;;;;;;;0.80;99.90;;;;;;5034944;28;20029;-82
2023/10/18 02:41:15;;;;;;;13.40;8.80;;;0.80;99.90;;;;;;5022354;28;20595;-83
2023/10/18 02:43:45;;;;;;;13.05;7.60;;;0.80;99.90;;;;;;5028940;28;20435;-83
2023/10/18 02:46:16;;;;;;;11.60;7.25;;;0.70;99.90;;;;;;5022370;28;20021;-83
2023/10/18 02:48:45;;;;;;;10.95;7.53;;;0.60;99.90;;;;;;5043544;28;20103;-83
2023/10/18 02:51:14;;;;;;;13.38;8.50;;;0.60;99.90;;;;;;5043973;28;20045;-81
2023/10/18 02:53:43;;;;;;;13.20;8.13;;;0.60;99.90;;;;;;5028270;28;20025;-83
2023/10/18 02:56:20;;;;;;;11.88;7.30;;;0.50;99.90;;;;;;5046820;28;20085;-81
2023/10/18 02:58:47;;;;;;;13.25;8.52;;;0.60;99.90;;;;;;5032579;28;20087;-80
2023/10/18 03:01:19;;;;;;;16.13;8.15;;;0.50;99.90;;;;;;5032778;28;20047;-82
2023/10/18 03:03:54;;;;;;;12.57;8.63;;;0.50;99.90;;;;;;5034325;28;20030;-82
2023/10/18 03:06:24;;;;;;;14.27;8.82;;;0.60;99.90;;;;;;5032034;28;20437;-82
2023/10/18 03:08:50;;;;;;;14.68;9.00;;;0.60;99.90;;;;;;5033241;28;20053;-80
2023/10/18 03:11:20;;;;;;;15.50;9.23;;;0.50;99.90;;;;;;5033762;28;20026;-82
2023/10/18 03:13:48;;;;;;;15.60;9.30;;;0.50;99.90;;;;;;5034228;28;20053;-82
2023/10/18 03:19:09;;;;;;;14.07;8.63;;;0.50;99.90;;;;;;5037554;28;20041;-80
2023/10/18 03:21:35;;;;;;;16.17;9.60;;;0.50;99.90;;;;;;5035109;28;20049;-80
2023/10/18 03:24:02;;;;;;;16.17;10.18;;;0.50;99.90;;;;;;5037433;28;20037;-79
2023/10/18 03:26:37;;;;;;;17.33;9.68;;;0.40;99.90;;;;;;5037893;28;20040;-81
2023/10/18 03:29:16;;;;;;;18.77;10.23;;;0.30;99.90;;;;;;5037052;28;20055;-79
2023/10/18 03:31:47;;;;;;;16.23;10.18;;;0.30;99.90;;;;;;5035122;28;20481;-81
2023/10/18 03:34:19;;;;;;;14.80;9.77;;;0.30;99.90;;;;;;5039061;28;20018;-81
2023/10/18 03:36:49;;;;;;;15.82;9.95;;;0.30;99.90;;;;;;5039142;28;20060;-81
2023/10/18 03:39:15;;;;;;;16.30;10.25;;;0.30;99.90;;;;;;5037286;28;20171;-80
2023/10/18 03:41:46;;;;;;;15.32;9.88;;;0.30;99.90;;;;;;5036931;28;20045;-80
2023/10/18 03:44:20;;;;;;;16.77;10.57;;;0.30;99.90;;;;;;5034825;28;20036;-80
2023/10/18 03:46:47;;;;;;;17.17;10.30;;;0.30;99.90;;;;;;5054121;28;20048;-82
2023/10/18 03:49:38;;;;;;;17.08;9.88;;;0.30;99.90;;;;;;5054911;28;20500;-80
2023/10/18 03:54:47;;;;;;;14.85;9.10;;;0.40;99.90;;;;;;5035902;28;20567;-82
2023/10/18 03:57:16;;;;;;;13.63;8.73;;;0.40;99.90;;;;;;5046715;28;20546;-83
2023/10/18 03:59:45;;;;;;;10.75;8.10;;;0.40;99.90;;;;;;5038734;28;20608;-82
2023/10/18 04:02:16;;;;;;;12.02;8.02;;;0.40;99.90;;;;;;5036327;28;20037;-82
2023/10/18 04:04:45;;;;;;;12.75;8.32;;;0.40;99.90;;;;;;5039360;28;20030;-80
2023/10/18 04:07:16;;;;;;;13.93;8.23;;;0.50;99.90;;;;;;5035998;28;20021;-81
2023/10/18 04:09:53;;;;;;;12.35;7.93;;;0.50;99.90;;;;;;5032233;28;20032;-83
2023/10/18 04:12:22;;;;;;;14.95;8.25;;;0.40;99.90;;;;;;5030531;28;20037;-82
2023/10/18 04:15:14;;;;;;;13.45;8.18;;;0.40;99.90;;;;;;5032607;28;20033;-82
2023/10/18 04:17:42;;;;;;;14.45;8.90;;;0.40;99.90;;;;;;5030062;28;20497;-80
2023/10/18 04:22:47;;;;;;;14.32;8.95;;;0.30;99.90;;;;;;5030186;28;20040;-83
2023/10/18 04:25:31;;;;;;;14.52;9.57;;;0.30;99.90;;;;;;5031748;28;20036;-83
2023/10/18 04:27:58;;;;;;;16.97;10.23;;;0.30;99.90;;;;;;5022601;28;20396;-81
2023/10/18 04:30:25;;;;;;;17.55;10.52;;;0.30;99.90;;;;;;5029944;28;20030;-78
2023/10/18 04:32:59;;;;;;;19.23;11.00;;;0.30;99.90;;;;;;5030219;28;20021;-81
2023/10/18 04:35:36;;;;;;;15.40;10.00;;;0.30;99.90;;;;;;5030872;28;20041;-82
2023/10/18 04:38:07;;;;;;;16.63;10.18;;;0.30;99.90;;;;;;5031804;28;20029;-82
2023/10/18 04:40:34;;;;;;;15.73;8.65;;;0.30;99.90;;;;;;5030228;28;20066;-83
2023/10/18 04:43:01;;;;;;;17.77;10.27;;;0.30;99.90;;;;;;5029926;28;20041;-80
2023/10/18 04:45:29;;;;;;;19.05;9.82;;;0.30;99.90;;;;;;5037440;28;20504;-81
2023/10/18 04:48:05;;;;;;;16.77;10.07;;;0.30;99.90;;;;;;5036055;28;20071;-83
2023/10/18 04:50:38;;;;;;;16.55;9.88;;;0.30;99.90;;;;;;5033274;28;20095;-80
2023/10/18 04:53:12;;;;;;;14.95;10.05;;;0.30;99.90;;;;;;5040054;28;20120;-82
2023/10/18 04:55:41;;;;;;;15.18;9.73;;;0.20;99.90;;;;;;5039528;28;20037;-81
2023/10/18 04:58:07;;;;;;;14.57;9.43;;;0.30;99.90;;;;;;5039740;28;20101;-82
2023/10/18 05:00:50;;;;;;;12.55;9.07;;;0.20;99.90;;;;;;5039308;28;20501;-81
2023/10/18 05:03:17;;;;;;;16.25;10.35;;;0.20;99.90;;;;;;5045058;28;20040;-79
2023/10/18 05:05:44;;;;;;;16.52;10.50;;;0.20;99.90;;;;;;5042954;28;20037;-80
2023/10/18 05:08:14;;;;;;;16.23;10.00;;;0.20;99.90;;;;;;5041874;28;20041;-82
2023/10/18 05:10:45;;;;;;;15.82;9.90;;;0.20;99.90;;;;;;5040067;28;20034;-81
2023/10/18 05:16:04;;;;;;;17.63;10.48;;;0.20;99.90;;;;;;5047043;28;20483;-81
2023/10/18 05:18:30;;;;;;;18.08;11.35;;;0.20;99.90;;;;;;5027373;28;20038;-83
2023/10/18 05:20:58;;;;;;;16.25;10.48;;;0.20;99.90;;;;;;5037461;28;20040;-83
2023/10/18 05:23:32;;;;;;;17.15;11.23;;;0.10;99.90;;;;;;5031150;28;20517;-79
2023/10/18 05:31:43;;;;;;;18.25;11.38;;;0.10;99.90;;;;;;5031628;28;20041;-82
2023/10/18 05:39:27;;;;;;;14.52;10.43;;;0.10;99.90;;;;;;5034062;28;20333;-83
2023/10/18 05:42:13;;;;;;;15.00;10.30;;;0.10;99.90;;;;;;5021649;28;20036;-82
2023/10/18 05:44:41;;;;;;;14.75;10.35;;;0.10;99.90;;;;;;5028644;28;20536;-82
2023/10/18 05:47:08;;;;;;;15.27;10.50;;;0.00;99.90;;;;;;5035016;28;20114;-80
2023/10/18 05:49:40;;;;;;;15.45;11.05;;;0.00;99.90;;;;;;5036321;28;20669;-83
2023/10/18 05:54:34;;;;;;;15.25;9.60;;;0.10;99.90;;;;;;5036154;28;20508;-82
2023/10/18 05:57:01;;;;;;;18.38;9.15;;;0.20;99.90;;;;;;5035828;28;20076;-83
2023/10/18 05:59:33;;;;;;;13.98;9.27;;;0.20;99.90;;;;;;5035354;28;20037;-82
2023/10/18 06:02:10;;;;;;;16.42;10.40;;;0.20;99.90;;;;;;5030745;28;20041;-83
2023/10/18 06:04:42;;;;;;;16.83;10.02;;;0.20;99.90;;;;;;5035838;28;20025;-83
2023/10/18 06:07:13;;;;;;;17.77;11.05;;;0.20;99.90;;;;;;5029217;28;20021;-82
2023/10/18 06:09:54;;;;;;;17.10;11.32;;;0.20;99.90;;;;;;5035439;28;20120;-83
2023/10/18 06:12:27;;;;;;;18.50;11.50;;;0.30;99.90;;;;;;5029584;28;20087;-82
2023/10/18 06:14:53;;;;;;;17.23;10.98;;;0.30;99.90;;;;;;5030129;28;20507;-82
2023/10/18 06:17:22;;;;;;;17.02;10.23;;;0.30;99.90;;;;;;5028103;28;20045;-83
2023/10/18 06:19:50;;;;;;;17.08;10.57;;;0.30;99.90;;;;;;5029909;28;20437;-84
2023/10/18 06:22:28;;;;;;;16.77;9.88;;;0.40;99.90;;;;;;5028353;28;20045;-82
2023/10/18 06:24:57;;;;;;;16.52;10.05;;;0.40;99.90;;;;;;5014079;28;20040;-82
2023/10/18 06:27:23;;;;;;;17.25;10.15;;;0.40;99.90;;;;;;5033179;28;20044;-82
2023/10/18 06:30:14;;;;;;;14.02;9.70;;;0.50;99.90;;;;;;5030519;28;20063;-79
2023/10/18 06:32:41;;;;;;;16.48;10.25;;;0.50;99.90;;;;;;5034863;28;20497;-81
2023/10/18 06:35:16;;;;;;;13.50;9.23;;;0.60;99.90;;;;;;5033839;28;20040;-80
2023/10/18 06:37:42;;;;;;;16.13;10.07;;;0.80;99.90;;;;;;5033904;28;20034;-81
2023/10/18 06:41:00;;;;;;;15.70;9.82;;;0.80;99.90;;;;;;5030909;28;20428;-81
2023/10/18 06:42:57;;;;;;;15.23;9.80;;;0.90;99.90;;;;;;5039343;28;20102;-80
2023/10/18 06:45:25;;;;;;;14.55;9.43;;;0.90;99.90;;;;;;5033317;28;20045;-81
2023/10/18 06:47:54;;;;;;;14.82;9.45;;;1.00;99.90;;;;;;5032725;28;20112;-81
2023/10/18 06:50:26;;;;;;;16.23;9.88;;;1.10;99.90;;;;;;5032418;28;20021;-81
2023/10/18 06:52:56;;;;;;;15.77;9.73;;;1.20;99.90;;;;;;5033441;28;20065;-80
2023/10/18 06:58:14;;;;;;;17.30;9.70;;;1.40;99.90;;;;;;5026726;28;20033;-80
2023/10/18 07:00:43;;;;;;;19.60;10.45;;;1.50;99.90;;;;;;5031990;28;20025;-81
2023/10/18 07:03:16;;;;;;;15.88;9.50;;;1.70;99.90;;;;;;5040519;28;20030;-80
2023/10/18 07:05:44;;;;;;;23.60;10.45;;;1.90;99.90;;;;;;5036760;28;20083;-80
2023/10/18 07:08:19;;;;;;;15.13;9.82;;;2.00;99.90;;;;;;5035606;28;20387;-80
2023/10/18 07:10:57;;;;;;;13.82;8.85;;;2.20;99.90;;;;;;5035994;28;20619;-79
2023/10/18 07:13:33;;;;;;;14.15;9.70;;;2.40;99.90;;;;;;5039301;28;20033;-80
2023/10/18 07:16:12;;;;;;;15.32;9.85;;;2.60;99.90;;;;;;5037703;28;20056;-79
2023/10/18 07:18:42;;;;;;;17.02;11.27;;;2.70;99.90;;;;;;5037605;28;20076;-79
2023/10/18 07:21:10;;;;;;;14.35;9.50;;;2.90;99.90;;;;;;5035325;28;20038;-81
2023/10/18 07:23:37;;;;;;;11.63;8.00;;;3.00;99.90;;;;;;5036879;28;20041;-81
2023/10/18 07:26:07;;;;;;;10.63;7.15;;;3.10;99.90;;;;;;5036895;28;20045;-80
2023/10/18 07:28:36;;;;;;;12.48;7.80;;;3.10;99.90;;;;;;5035459;28;20044;-82
2023/10/18 07:31:08;;;;;;;13.07;7.30;;;3.20;99.90;;;;;;5035311;28;20578;-81
2023/10/18 07:33:40;;;;;;;12.93;8.07;;;3.30;99.90;;;;;;5035700;28;20025;-81
2023/10/18 07:36:11;;;;;;;10.75;7.18;;;3.30;99.90;;;;;;5035818;28;20088;-82
2023/10/18 07:38:39;;;;;;;12.88;7.70;;;3.30;99.90;;;;;;5036081;28;20037;-82
2023/10/18 07:41:08;;;;;;;12.95;8.15;;;3.30;99.90;;;;;;5051030;28;20029;-81
2023/10/18 07:43:35;;;;;;;12.80;7.75;;;3.30;99.90;;;;;;5037333;28;20349;-81
2023/10/18 07:46:09;;;;;;;13.57;8.32;;;3.30;99.90;;;;;;5037081;28;20095;-80
2023/10/18 07:48:38;;;;;;;13.73;8.65;;;3.40;99.90;;;;;;5031942;28;20065;-80
2023/10/18 07:54:05;;;;;;;14.27;8.50;;;3.40;99.90;;;;;;5039103;28;20072;-79
2023/10/18 07:56:31;;;;;;;13.38;9.00;;;3.50;99.90;;;;;;5028199;28;20439;-80
2023/10/18 08:01:51;;;;;;;13.52;8.23;;;3.60;99.90;;;;;;5033143;28;20563;-79
2023/10/18 08:04:36;;;;;;;12.25;8.18;;;3.60;99.90;;;;;;5034704;28;20065;-80
2023/10/18 08:07:10;;;;;;;11.35;7.72;;;3.70;99.90;;;;;;5034505;28;20448;-82
2023/10/18 08:09:39;;;;;;;12.10;7.85;;;3.80;99.90;;;;;;5035155;28;20029;-80
2023/10/18 08:12:06;;;;;;;13.55;8.52;;;3.80;99.90;;;;;;5032292;28;20029;-81
2023/10/18 08:14:33;;;;;;;13.55;8.43;;;3.90;99.90;;;;;;5034603;28;20022;-82
2023/10/18 08:17:08;;;;;;;13.43;8.52;;;3.90;99.90;;;;;;5031665;28;20067;-80
2023/10/18 08:19:44;;;;;;;16.58;8.95;;;4.00;99.90;;;;;;5044985;28;20041;-81
2023/10/18 08:24:36;;;;;;;15.20;9.00;;;4.20;99.90;;;;;;5039965;28;20037;-80
2023/10/18 08:27:10;;;;;;;15.00;9.65;;;4.20;99.90;;;;;;5039780;28;20060;-81
2023/10/18 08:29:37;;;;;;;15.43;10.40;;;4.30;99.90;;;;;;5039630;28;20038;-81
2023/10/18 08:32:16;;;;;;;17.52;10.07;;;4.40;99.90;;;;;;5038126;28;20032;-81
2023/10/18 08:34:44;;;;;;;16.73;9.73;;;4.50;99.90;;;;;;5039225;28;20049;-81
2023/10/18 08:37:13;;;;;;;13.70;8.40;;;4.60;99.90;;;;;;5038851;28;20208;-80
2023/10/18 08:39:40;;;;;;;14.27;8.77;;;4.70;99.90;;;;;;5053428;28;20034;-82
2023/10/18 08:42:12;;;;;;;14.40;9.00;;;4.70;99.90;;;;;;5038110;28;20030;-83
2023/10/18 08:44:39;;;;;;;11.70;8.50;;;4.60;99.90;;;;;;5040661;28;20045;-79
2023/10/18 08:49:55;;;;;;;15.25;9.25;;;4.70;99.90;;;;;;5037317;28;20026;-83
2023/10/18 08:52:23;;;;;;;;;;;4.70;99.90;;;;;;5036206;28;20033;-82
2023/10/18 08:54:49;;;;;;;13.57;8.85;;;4.70;99.90;;;;;;5033294;28;20004;-82
2023/10/18 08:57:24;;;;;;;12.88;8.65;;;4.80;99.90;;;;;;5037065;28;20061;-81
2023/10/18 08:59:51;;;;;;;14.82;9.25;;;4.80;99.90;;;;;;5038620;28;20049;-81
2023/10/18 09:02:18;;;;;;;15.23;9.35;;;4.90;99.90;;;;;;5037351;28;20064;-82
2023/10/18 09:04:46;;;;;;;13.85;9.23;;;5.00;99.90;;;;;;5039399;28;20034;-82
2023/10/18 09:10:00;;;;;;;17.50;9.63;;;5.20;99.90;;;;;;5029695;28;20547;-80
2023/10/18 09:15:35;;;;;;;13.52;8.18;;;5.40;99.90;;;;;;5038762;28;20040;-81
2023/10/18 09:18:05;;;;;;;11.82;8.05;;;5.50;99.90;;;;;;5026130;28;20389;-80
2023/10/18 09:20:31;;;;;;;19.77;10.77;;;5.50;99.90;;;;;;5031435;28;20040;-81
2023/10/18 09:23:05;;;;;;;15.77;9.35;;;5.60;99.90;;;;;;5033826;28;20051;-81
2023/10/18 09:25:50;;;;;;;19.40;9.63;;;5.80;99.90;;;;;;5032762;28;20045;-81
2023/10/18 09:31:00;;;;;;;16.95;8.45;;;6.20;99.90;;;;;;5032724;28;20382;-82
2023/10/18 09:33:33;;;;;;;13.32;8.70;;;6.40;99.90;;;;;;5034802;28;20034;-81
2023/10/18 09:36:02;;;;;;;14.63;8.95;;;6.60;99.90;;;;;;5031361;28;20218;-80
2023/10/18 09:38:39;;;;;;;12.50;8.82;;;6.70;99.90;;;;;;5047467;28;20060;-81
2023/10/18 09:41:05;;;;;;;13.90;8.32;;;6.90;99.90;;;;;;5026385;28;20033;-81
2023/10/18 09:43:38;;;;;;;11.75;8.05;;;7.10;99.90;;;;;;5025075;28;20041;-80
2023/10/18 09:46:05;;;;;;;12.60;8.20;;;7.20;99.90;;;;;;5038536;28;20029;-80
2023/10/18 09:48:32;;;;;;;13.07;7.57;;;7.40;99.90;;;;;;5034706;28;20100;-80
2023/10/18 09:51:06;;;;;;;11.10;7.18;;;7.50;99.90;;;;;;5033693;28;20061;-80
2023/10/18 09:53:48;;;;;;;14.00;7.25;;;7.60;99.90;;;;;;5035590;28;20103;-82
2023/10/18 09:56:17;;;;;;;10.15;6.45;;;7.70;99.90;;;;;;5027561;28;20083;-81
2023/10/18 09:58:46;;;;;;;9.35;6.07;;;7.80;99.90;;;;;;5032550;28;20040;-83
2023/10/18 10:01:14;;;;;;;12.05;6.70;;;8.00;99.90;;;;;;5031494;28;20034;-81
2023/10/18 10:03:52;;;;;;;12.52;7.45;;;8.10;99.90;;;;;;5033278;28;20048;-81
2023/10/18 10:06:23;;;;;;;13.65;7.03;;;8.20;99.90;;;;;;5033183;28;20029;-80
2023/10/18 10:09:13;;;;;;;8.80;6.07;;;8.30;99.90;;;;;;5032591;28;20034;-81
2023/10/18 10:11:43;;;;;;;9.63;5.80;;;8.40;99.90;;;;;;5031557;28;20067;-81
2023/10/18 10:14:15;;;;;;;9.00;6.47;;;8.40;99.90;;;;;;5031875;28;20029;-81
2023/10/18 10:16:52;;;;;;;8.07;5.40;;;8.40;99.90;;;;;;5026101;28;20079;-81
2023/10/18 10:19:22;;;;;;;8.25;5.22;;;8.40;99.90;;;;;;5030826;28;20100;-81
2023/10/18 10:21:49;;;;;;;6.68;5.22;;;8.50;99.90;;;;;;5033233;28;20036;-82
2023/10/18 10:24:31;;;;;;;12.35;6.18;;;8.60;99.90;;;;;;5039713;28;20083;-81
2023/10/18 10:27:27;;;;;;;8.23;6.15;;;8.60;99.90;;;;;;5033111;28;20038;-80
2023/10/18 10:29:56;;;;;;;;;;;8.70;99.90;;;;;;5033453;28;20142;-80
2023/10/18 10:32:28;;;;;;;11.07;5.65;;;8.70;99.90;;;;;;5033912;28;19905;-81
2023/10/18 10:35:15;;;;;;;10.25;5.93;;;8.80;99.90;;;;;;5032824;28;20061;-82
2023/10/18 10:37:48;;;;;;;9.32;5.85;;;8.90;99.90;;;;;;5038440;28;20045;-80
2023/10/18 10:40:19;;;;;;;9.65;6.00;;;9.00;99.90;;;;;;5033348;28;20037;-83
2023/10/18 10:42:50;;;;;;;11.30;5.95;;;9.10;99.90;;;;;;5033735;28;20041;-82
2023/10/18 10:45:54;;;;;;;9.50;6.05;;;9.10;99.90;;;;;;5028422;28;20106;-81
2023/10/18 10:48:30;;;;;;;9.48;6.32;;;9.20;99.90;;;;;;5053876;28;20119;-81
2023/10/18 10:51:22;;;;;;;7.30;5.43;;;9.30;99.90;;;;;;5029193;28;20040;-80
2023/10/18 10:53:57;;;;;;;10.32;5.75;;;9.30;99.90;;;;;;5031418;28;20049;-82
2023/10/18 10:56:33;;;;;;;12.02;6.13;;;9.40;99.90;;;;;;5029442;28;20099;-81
2023/10/18 11:01:43;;;;;;;7.75;5.15;;;9.50;99.90;;;;;;5018915;28;20058;-79
2023/10/18 11:04:25;;;;;;;10.23;6.13;;;9.60;99.90;;;;;;5025018;28;20056;-81
2023/10/18 11:06:58;;;;;;;7.90;5.47;;;9.80;99.90;;;;;;5029486;28;20044;-81
2023/10/18 11:09:32;;;;;;;8.02;5.47;;;9.80;99.90;;;;;;5028923;28;20037;-82
2023/10/18 11:12:03;;;;;;;8.53;5.93;;;9.90;99.90;;;;;;5027386;28;20412;-80
2023/10/18 11:14:31;;;;;;;7.75;5.30;;;9.90;99.90;;;;;;5030479;28;20044;-79
2023/10/18 11:17:03;;;;;;;7.68;5.53;;;9.90;99.90;;;;;;5032999;28;20033;-79
2023/10/18 11:19:29;;;;;;;7.78;5.15;;;9.90;99.90;;;;;;5031635;28;20056;-79
2023/10/18 11:21:58;;;;;;;7.68;5.80;;;10.00;99.90;;;;;;5026493;28;20696;-80
2023/10/18 11:24:24;;;;;;;8.63;5.65;;;10.10;99.90;;;;;;5032474;28;20033;-80
2023/10/18 11:26:51;;;;;;;7.32;5.47;;;10.10;99.90;;;;;;5032430;28;20547;-80
2023/10/18 11:29:24;;;;;;;7.70;5.25;;;10.20;99.90;;;;;;5028812;28;20037;-82
2023/10/18 11:31:55;;;;;;;9.45;5.53;;;10.20;99.90;;;;;;5025306;28;20725;-81
2023/10/18 11:34:25;;;;;;;7.10;5.03;;;10.20;99.90;;;;;;5024849;28;20052;-81
2023/10/18 11:36:54;;;;;;;7.88;5.20;;;10.20;99.90;;;;;;5028212;28;20030;-81
2023/10/18 11:39:29;;;;;;;8.30;5.80;;;10.20;99.90;;;;;;5030338;28;20033;-80
2023/10/18 11:41:56;;;;;;;6.67;4.70;;;10.30;99.90;;;;;;5031461;28;20030;-81
2023/10/18 11:44:33;;;;;;;8.52;4.95;;;10.40;99.90;;;;;;5035538;28;20032;-81
2023/10/18 11:47:11;;;;;;;10.35;5.57;;;10.60;99.90;;;;;;5029411;28;20048;-81
2023/10/18 11:49:42;;;;;;;6.80;5.30;;;10.70;99.90;;;;;;5037249;28;20037;-82
2023/10/18 11:52:21;;;;;;;8.18;5.13;;;10.70;99.90;;;;;;5034996;28;20025;-81
2023/10/18 11:54:52;;;;;;;5.55;4.00;;;10.90;99.90;;;;;;5036185;28;20037;-81
2023/10/18 11:57:29;;;;;;;6.97;4.20;;;11.00;99.90;;;;;;5035805;28;20089;-81
2023/10/18 12:00:26;;;;;;;7.38;4.88;;;11.10;99.90;;;;;;5034522;28;20034;-81
2023/10/18 12:02:53;;;;;;;6.90;4.28;;;11.10;99.90;;;;;;5040495;28;20047;-80
2023/10/18 12:05:28;;;;;;;5.68;3.92;;;11.30;99.90;;;;;;5037962;28;20033;-81
2023/10/18 12:08:05;;;;;;;6.45;4.32;;;11.40;99.90;;;;;;5033461;28;20041;-82
2023/10/18 12:10:34;;;;;;;6.05;4.07;;;11.50;99.90;;;;;;5032524;28;20029;-81
2023/10/18 12:13:07;;;;;;;9.27;3.88;;;11.60;99.90;;;;;;5039194;28;20017;-80
2023/10/18 12:15:34;;;;;;;6.80;4.18;;;11.70;98.50;;;;;;5038984;28;20040;-81
2023/10/18 12:18:03;;;;;;;5.45;4.10;;;11.60;98.20;;;;;;5029447;28;20038;-81
2023/10/18 12:20:45;;;;;;;7.65;4.22;;;11.70;99.10;;;;;;5037067;28;20042;-80
2023/10/18 12:23:13;;;;;;;6.60;3.83;;;11.60;98.00;;;;;;5037403;28;20033;-81
2023/10/18 12:25:45;;;;;;;5.43;3.80;;;11.60;98.60;;;;;;5031297;28;20645;-80
2023/10/18 12:28:12;;;;;;;6.95;3.85;;;11.60;99.10;;;;;;5036523;28;20033;-81
2023/10/18 12:30:51;;;;;;;7.20;4.15;;;11.60;98.60;;;;;;5036071;28;20079;-81
2023/10/18 12:33:26;;;;;;;6.03;3.70;;;11.70;98.80;;;;;;5034401;28;20539;-79
2023/10/18 12:35:56;;;;;;;4.78;3.40;;;11.60;96.30;;;;;;5035660;28;20117;-81
2023/10/18 12:38:31;;;;;;;5.00;3.67;;;11.60;97.40;;;;;;5035463;28;20079;-81
2023/10/18 12:43:45;;;;;;;4.28;3.88;;;11.60;98.70;;;;;;5028313;28;20398;-80
2023/10/18 12:46:20;;;;;;;6.82;4.22;;;11.60;98.60;;;;;;5033581;28;20033;-80
2023/10/18 12:48:49;;;;;;;4.80;3.47;;;11.60;99.80;;;;;;5030571;28;20551;-79
2023/10/18 12:51:17;;;;;;;5.75;3.35;;;11.50;99.70;;;;;;5031808;28;20029;-80
2023/10/18 12:53:47;;;;;;;4.28;3.08;;;11.50;95.80;;;;;;5030606;28;20477;-80
2023/10/18 12:56:24;;;;;;;4.22;3.28;;;11.40;96.20;;;;;;5034176;28;20078;-78
2023/10/18 13:01:33;;;;;;;6.28;3.28;;;11.40;95.60;;;;;;5030949;28;20030;-81
2023/10/18 13:04:06;;;;;;;4.53;3.63;;;11.40;96.90;;;;;;5035138;28;20032;-81
2023/10/18 13:06:43;;;;;;;4.70;3.33;;;11.40;95.90;;;;;;5033734;28;20071;-82
2023/10/18 13:11:44;;;;;;;4.78;3.10;;;11.40;94.80;;;;;;5032280;28;20518;-80
2023/10/18 13:14:13;;;;;;;7.10;2.90;;;11.40;94.90;;;;;;5040999;28;20030;-83
2023/10/18 13:16:41;;;;;;;5.68;3.05;;;11.30;94.60;;;;;;5040195;28;20041;-79
2023/10/18 13:19:07;;;;;;;4.70;3.00;;;11.20;95.00;;;;;;5037221;28;20045;-81
2023/10/18 13:21:33;;;;;;;6.55;2.80;;;11.20;94.40;;;;;;5039698;28;20079;-80
2023/10/18 13:23:59;;;;;;;4.63;2.63;;;11.10;95.30;;;;;;5041046;28;20033;-79
2023/10/18 13:26:33;;;;;;;5.78;2.78;;;11.10;95.40;;;;;;5038268;28;20030;-79
2023/10/18 13:29:03;;;;;;;3.90;2.80;;;11.10;95.40;;;;;;5032251;28;20120;-79
2023/10/18 13:31:32;;;;;;;4.22;2.70;;;11.10;95.10;;;;;;5036441;28;20034;-79
2023/10/18 13:34:06;;;;;;;3.72;2.90;;;11.10;95.60;;;;;;5033081;28;20041;-80
2023/10/18 13:36:36;;;;;;;4.60;3.00;;;11.10;95.30;;;;;;5033793;28;20039;-79
2023/10/18 13:39:11;;;;;;;5.53;3.15;;;11.00;94.70;;;;;;5028095;28;20093;-79
2023/10/18 13:41:39;;;;;;;4.65;3.10;;;11.10;95.40;;;;;;5031062;28;20097;-81
2023/10/18 13:44:05;;;;;;;5.25;3.20;;;11.00;94.70;;;;;;5032447;28;20021;-78
2023/10/18 13:46:31;;;;;;;3.78;3.03;;;11.10;95.60;;;;;;5031491;28;20029;-81
2023/10/18 13:48:57;;;;;;;4.47;3.00;;;11.10;95.30;;;;;;5030091;28;20381;-80
2023/10/18 13:51:23;;;;;;;3.75;2.88;;;11.10;95.10;;;;;;5026984;28;20040;-79
2023/10/18 13:53:52;;;;;;;5.10;3.22;;;11.10;94.70;;;;;;5029957;28;20056;-80
2023/10/18 13:56:21;;;;;;;6.32;3.40;;;11.20;94.60;;;;;;5031036;28;20039;-80
2023/10/18 13:58:46;;;;;;;6.03;3.17;;;11.20;95.70;;;;;;5043845;28;20079;-81
2023/10/18 14:01:22;;;;;;;5.50;3.20;;;11.20;95.10;;;;;;5027387;28;20138;-82
2023/10/18 14:03:53;;;;;;;3.58;2.90;;;11.20;95.40;;;;;;5029040;28;20033;-80
2023/10/18 14:06:19;;;;;;;4.95;3.08;;;11.20;96.10;;;;;;5027535;28;20033;-80
2023/10/18 14:08:47;;;;;;;4.70;3.00;;;11.20;95.50;;;;;;5029910;28;20500;-81
2023/10/18 14:11:14;;;;;;;4.55;2.97;;;11.30;95.30;;;;;;5025647;28;20030;-81